Hitachi, Japan
Current Conditions -  °F | °C
As of 7:00 PM on Saturday 29 Nov 2014 (Local Time) from RJAH Reporting Station
Moderate Fog Moderate Fog  
Wind Chill: 54°   Ceiling: Unl
Heat Index: 54°   Visibility: 0.12mi
Dew Point: 52°   Wind: 6mph
Humidity: 94%   Direction: 330°NNW
Pressure: 29.85"   Gusts: NA
Location:  36.59°N, 140.66°E
Report Text: RJAH 291000Z 33005KT 0200 R03/0400N FG VV000 12/11 Q1011
Loading
Personal Weather Stations






























Interactive Weather Map New forecast layout! Learn more

10-Day Weather Forecast

Advertisements
Track Severe Weather on mobile